Time;durP1;ratioP1;P1;durP2;ratioP2;P2;SDS_P1;SDS_P2;PMS_P1;PMS_P2;Temp;Humidity;BMP_temperature;BMP_pressure;BME280_temperature;BME280_humidity;BME280_pressure;Samples;Min_cycle;Max_cycle;Signal;HPM_P1;HPM_P2
2024/02/27 00:03:31;;;;;;;21.70;17.80;;;;;;;9.67;80.26;99456.44;10437600;28;20052;-60
2024/02/27 00:08:32;;;;;;;20.58;18.42;;;;;;;9.65;81.05;99451.28;10419846;28;20138;-60
2024/02/27 00:13:34;;;;;;;19.70;17.65;;;;;;;9.69;80.72;99457.97;10435994;28;20132;-59
2024/02/27 00:18:36;;;;;;;18.90;16.67;;;;;;;9.66;81.11;99468.88;10405133;28;20045;-61
2024/02/27 00:23:37;;;;;;;20.00;16.88;;;;;;;9.61;81.51;99462.28;10415890;28;20548;-60
2024/02/27 00:28:39;;;;;;;19.33;17.33;;;;;;;9.62;81.21;99469.28;10401871;28;20079;-61
2024/02/27 00:33:41;;;;;;;18.10;16.20;;;;;;;9.49;82.17;99491.63;10422778;28;20132;-60
2024/02/27 00:38:42;;;;;;;18.35;16.42;;;;;;;9.59;81.60;99510.25;10433097;28;21041;-61
2024/02/27 00:43:44;;;;;;;18.58;16.67;;;;;;;9.67;81.75;99504.28;10421086;28;20096;-60
2024/02/27 00:48:45;;;;;;;19.17;17.23;;;;;;;9.71;80.88;99506.53;10417966;28;20130;-62
2024/02/27 00:53:47;;;;;;;19.10;17.08;;;;;;;9.62;80.64;99517.13;10427953;28;20758;-59
2024/02/27 00:58:48;;;;;;;18.70;16.30;;;;;;;9.43;80.88;99483.34;10436121;28;20152;-60
2024/02/27 01:03:50;;;;;;;17.80;16.00;;;;;;;9.51;80.77;99504.78;10434353;28;20131;-61
2024/02/27 01:08:51;;;;;;;18.83;16.33;;;;;;;9.54;80.21;99520.44;10434892;28;20167;-59
2024/02/27 01:13:53;;;;;;;17.17;15.48;;;;;;;9.51;80.14;99510.94;10438794;28;20048;-60
2024/02/27 01:18:54;;;;;;;19.42;17.42;;;;;;;9.45;80.49;99515.94;10438271;28;20044;-61
2024/02/27 01:23:56;;;;;;;17.48;15.63;;;;;;;9.42;80.68;99522.38;10439993;28;20118;-61
2024/02/27 01:28:58;;;;;;;18.02;16.23;;;;;;;9.41;80.40;99525.16;10435733;28;20060;-60
2024/02/27 01:34:00;;;;;;;18.77;16.88;;;;;;;9.46;80.63;99529.09;10442053;28;20163;-60
2024/02/27 01:39:04;;;;;;;22.02;17.65;;;;;;;9.43;80.18;99529.38;10412385;28;20064;-59
2024/02/27 01:44:07;;;;;;;19.50;16.63;;;;;;;9.44;80.02;99535.50;10439712;28;20655;-60
2024/02/27 01:49:11;;;;;;;17.90;16.00;;;;;;;9.46;79.87;99523.78;10418691;28;20198;-60
2024/02/27 01:54:17;;;;;;;19.05;16.77;;;;;;;9.46;79.54;99523.78;10399410;28;20106;-60
2024/02/27 01:59:22;;;;;;;18.33;15.57;;;;;;;9.36;79.77;99523.72;10430309;28;20056;-59
2024/02/27 02:04:24;;;;;;;18.15;16.33;;;;;;;9.39;79.45;99522.63;10413449;28;20068;-60
2024/02/27 02:09:26;;;;;;;17.95;16.25;;;;;;;9.42;79.05;99521.53;10433988;28;20163;-60
2024/02/27 02:14:29;;;;;;;18.02;16.15;;;;;;;9.48;78.72;99542.25;10408088;28;20069;-61
2024/02/27 02:19:30;;;;;;;19.45;16.08;;;;;;;9.31;79.35;99551.69;10412749;28;20060;-60
2024/02/27 02:24:35;;;;;;;18.02;16.23;;;;;;;9.24;79.05;99555.84;10434711;28;20059;-60
2024/02/27 02:29:36;;;;;;;17.15;15.30;;;;;;;9.26;78.86;99543.25;10424257;28;20056;-60
2024/02/27 02:34:38;;;;;;;15.95;14.35;;;;;;;9.23;78.94;99547.00;10439783;28;20060;-61
2024/02/27 02:39:39;;;;;;;17.95;16.15;;;;;;;9.25;79.02;99562.81;10422594;28;20071;-60
2024/02/27 02:44:41;;;;;;;17.13;14.75;;;;;;;9.17;78.49;99569.66;10437758;28;20056;-60
2024/02/27 02:49:43;;;;;;;17.20;15.40;;;;;;;9.09;78.66;99574.75;10437978;28;20795;-62
2024/02/27 02:54:45;;;;;;;16.45;14.77;;;;;;;9.12;78.46;99569.19;10422534;28;20117;-59
2024/02/27 02:59:46;;;;;;;17.33;15.63;;;;;;;9.01;78.42;99571.94;10440718;28;20049;-60
2024/02/27 03:04:48;;;;;;;16.45;14.70;;;;;;;8.96;78.42;99577.63;10434567;28;20044;-59
2024/02/27 03:09:50;;;;;;;16.35;14.65;;;;;;;8.72;78.56;99563.75;10435588;28;20143;-62
2024/02/27 03:14:52;;;;;;;16.38;14.60;;;;;;;8.79;79.16;99587.00;10431298;28;20573;-62
2024/02/27 03:19:54;;;;;;;18.63;16.13;;;;;;;8.72;78.88;99591.16;10411774;28;20139;-60
2024/02/27 03:24:55;;;;;;;17.60;15.88;;;;;;;8.75;78.92;99598.84;10418936;28;20048;-59
2024/02/27 03:29:57;;;;;;;16.52;14.77;;;;;;;8.77;79.17;99604.88;10422397;28;20600;-60
2024/02/27 03:34:59;;;;;;;16.63;14.93;;;;;;;8.80;78.56;99599.28;10429251;28;20052;-60
2024/02/27 03:40:00;;;;;;;18.83;15.80;;;;;;;8.78;78.15;99609.22;10426536;28;21391;-60
2024/02/27 03:45:02;;;;;;;16.60;14.90;;;;;;;8.72;78.37;99609.72;10421466;28;20071;-60
2024/02/27 03:50:04;;;;;;;16.38;14.65;;;;;;;8.72;78.18;99615.03;10390605;28;20057;-60
2024/02/27 03:55:06;;;;;;;17.65;15.35;;;;;;;8.64;78.27;99606.84;10425408;28;20053;-60
2024/02/27 04:00:09;;;;;;;17.23;14.48;;;;;;;8.52;78.51;99618.47;10375006;28;20057;-60
2024/02/27 04:05:11;;;;;;;16.92;15.15;;;;;;;8.47;78.99;99626.81;10405504;28;20087;-59
2024/02/27 04:10:13;;;;;;;18.10;16.20;;;;;;;8.53;79.02;99633.41;10402121;28;20059;-59
2024/02/27 04:15:14;;;;;;;16.50;14.60;;;;;;;8.52;78.79;99651.13;10427394;28;20287;-59
2024/02/27 04:20:16;;;;;;;14.68;13.15;;;;;;;8.56;78.82;99651.75;10411883;28;20048;-60
2024/02/27 04:25:18;;;;;;;15.55;14.00;;;;;;;8.44;78.72;99659.72;10434153;28;20117;-60
2024/02/27 04:30:20;;;;;;;14.90;13.38;;;;;;;8.41;78.86;99665.25;10423668;28;20053;-60
2024/02/27 04:35:21;;;;;;;18.15;14.07;;;;;;;8.38;79.08;99662.84;10435795;28;20056;-61
2024/02/27 04:40:25;;;;;;;17.35;14.05;;;;;;;8.26;78.83;99658.53;10410861;28;20052;-60
2024/02/27 04:45:27;;;;;;;14.27;12.70;;;;;;;8.17;79.40;99667.19;10434371;28;20056;-59
2024/02/27 04:50:28;;;;;;;15.32;13.70;;;;;;;8.18;79.46;99674.19;10440003;28;20701;-60
2024/02/27 04:55:30;;;;;;;14.60;13.00;;;;;;;8.21;79.60;99671.31;10432800;28;20194;-61
2024/02/27 05:00:33;;;;;;;14.80;13.30;;;;;;;8.17;79.81;99688.41;10427840;28;20122;-58
2024/02/27 05:05:37;;;;;;;14.70;13.20;;;;;;;8.22;79.95;99699.50;10426857;28;20111;-62
2024/02/27 05:10:39;;;;;;;16.02;13.70;;;;;;;8.16;79.51;99692.06;10434658;28;20186;-60
2024/02/27 05:15:40;;;;;;;14.93;13.05;;;;;;;8.16;79.60;99700.84;10438477;28;20044;-59
2024/02/27 05:20:42;;;;;;;15.00;12.88;;;;;;;8.14;79.67;99703.59;10410745;28;20048;-61
2024/02/27 05:25:43;;;;;;;14.20;12.50;;;;;;;8.18;79.72;99717.47;10400924;28;20726;-61
2024/02/27 05:30:46;;;;;;;14.75;12.93;;;;;;;8.07;79.83;99736.84;10439049;28;20133;-62
2024/02/27 05:35:47;;;;;;;14.23;12.75;;;;;;;8.06;79.86;99740.50;10437141;28;20041;-61
2024/02/27 05:40:48;;;;;;;14.60;13.07;;;;;;;8.10;79.81;99749.88;10413750;28;20495;-62
2024/02/27 05:45:50;;;;;;;14.38;11.90;;;;;;;8.18;79.96;99769.66;10414136;28;20512;-61
2024/02/27 05:50:51;;;;;;;15.40;13.07;;;;;;;8.21;79.57;99782.66;10436229;28;20056;-63
2024/02/27 05:55:53;;;;;;;13.68;12.23;;;;;;;8.21;78.74;99785.31;10400056;28;20066;-61
2024/02/27 06:00:55;;;;;;;15.07;13.18;;;;;;;7.88;79.53;99749.84;10414639;28;20045;-62
2024/02/27 06:05:58;;;;;;;15.15;12.02;;;;;;;7.96;80.07;99782.75;10436370;28;20052;-61
2024/02/27 06:10:59;;;;;;;12.57;11.38;;;;;;;7.97;80.27;99788.91;10406970;28;20683;-63
2024/02/27 06:16:03;;;;;;;13.88;11.80;;;;;;;7.92;80.60;99796.38;10385961;28;20048;-62
2024/02/27 06:26:27;;;;;;;13.77;12.30;;;;;;;8.05;80.63;99810.38;10418609;28;20051;-62
2024/02/27 06:31:29;;;;;;;14.07;11.95;;;;;;;8.08;79.84;99812.78;10428854;28;20209;-60
2024/02/27 06:36:31;;;;;;;14.27;12.77;;;;;;;8.06;79.59;99814.72;10393776;28;20089;-61
2024/02/27 06:41:33;;;;;;;13.95;12.40;;;;;;;8.11;79.70;99817.84;10403269;28;20059;-62
2024/02/27 06:46:35;;;;;;;14.07;12.57;;;;;;;8.14;80.24;99836.16;10427315;28;20050;-61
2024/02/27 06:51:38;;;;;;;14.77;13.15;;;;;;;8.13;79.60;99831.81;10416645;28;20040;-60
2024/02/27 06:56:40;;;;;;;13.70;12.30;;;;;;;8.04;79.45;99827.22;10427608;28;20044;-63
2024/02/27 07:01:41;;;;;;;15.48;13.80;;;;;;;7.95;80.17;99833.22;10435009;28;20049;-62
2024/02/27 07:06:43;;;;;;;13.93;12.20;;;;;;;7.87;80.91;99835.63;10407309;28;20054;-60
2024/02/27 07:11:45;;;;;;;13.95;12.50;;;;;;;7.89;80.49;99844.31;10408037;28;20044;-61
2024/02/27 07:16:46;;;;;;;15.88;12.95;;;;;;;7.95;80.42;99839.38;10433800;28;20061;-61
2024/02/27 07:21:48;;;;;;;17.25;13.65;;;;;;;8.11;80.19;99844.34;10428101;28;20341;-61
2024/02/27 07:26:50;;;;;;;14.30;12.57;;;;;;;8.20;80.43;99852.59;10438404;28;20121;-61
2024/02/27 07:31:52;;;;;;;13.35;12.05;;;;;;;8.27;79.88;99857.28;10420873;28;20272;-60
2024/02/27 07:36:53;;;;;;;14.07;12.63;;;;;;;8.25;79.92;99856.53;10423620;28;20052;-59
2024/02/27 07:41:58;;;;;;;;;;;;;;;8.34;79.92;99860.28;10416761;28;20138;-60
2024/02/27 07:46:59;;;;;;;16.55;13.15;;;;;;;8.26;80.32;99850.28;10433209;28;19931;-61
2024/02/27 07:52:01;;;;;;;14.63;12.90;;;;;;;8.37;80.04;99870.66;10422699;28;20052;-61
2024/02/27 07:57:03;;;;;;;13.80;12.30;;;;;;;8.23;80.05;99861.13;10427682;28;20048;-61
2024/02/27 08:02:05;;;;;;;14.65;12.68;;;;;;;8.34;80.23;99876.22;10378891;28;20044;-60
2024/02/27 08:07:07;;;;;;;14.35;12.95;;;;;;;8.39;79.57;99879.38;10420081;28;20053;-60
2024/02/27 08:12:09;;;;;;;14.05;11.30;;;;;;;8.47;79.27;99876.97;10416000;28;20049;-61
2024/02/27 08:17:12;;;;;;;13.95;11.50;;;;;;;8.47;78.56;99860.22;10408483;28;20048;-60
2024/02/27 08:22:13;;;;;;;12.02;10.82;;;;;;;8.49;79.02;99858.28;10432278;28;20065;-59
2024/02/27 08:27:16;;;;;;;12.05;10.38;;;;;;;8.48;78.33;99852.16;10394018;28;20064;-60
2024/02/27 08:32:19;;;;;;;12.27;11.05;;;;;;;8.76;77.60;99860.59;10419218;28;20052;-60
2024/02/27 08:37:21;;;;;;;10.85;9.75;;;;;;;8.85;76.60;99859.84;10397091;28;20056;-61
2024/02/27 08:42:22;;;;;;;10.25;9.18;;;;;;;8.95;76.24;99859.13;10410510;28;20053;-63
2024/02/27 08:47:27;;;;;;;11.73;10.52;;;;;;;9.35;74.92;99871.81;10422628;28;20059;-64
2024/02/27 08:52:29;;;;;;;10.95;9.85;;;;;;;9.59;73.53;99881.41;10406816;28;20056;-62
2024/02/27 08:57:30;;;;;;;12.23;9.77;;;;;;;9.73;72.82;99887.28;10410421;28;20052;-61
2024/02/27 09:02:37;;;;;;;10.55;9.25;;;;;;;10.06;71.40;99880.13;10399310;28;20056;-61
2024/02/27 09:07:40;;;;;;;10.82;9.40;;;;;;;10.26;69.88;99878.41;10400613;28;20044;-63
2024/02/27 09:12:41;;;;;;;10.70;9.52;;;;;;;10.54;69.04;99884.09;10384084;28;20738;-61
2024/02/27 09:17:43;;;;;;;10.23;9.13;;;;;;;10.48;68.57;99900.59;10431808;28;20116;-61
2024/02/27 09:22:45;;;;;;;10.80;9.20;;;;;;;10.68;68.21;99895.34;10442015;28;20118;-63
2024/02/27 09:27:46;;;;;;;11.98;9.82;;;;;;;11.12;66.29;99890.59;10425199;28;20221;-61
2024/02/27 09:32:51;;;;;;;11.23;9.85;;;;;;;11.58;65.08;99881.16;10404768;28;20059;-62
2024/02/27 09:37:53;;;;;;;11.65;9.45;;;;;;;11.97;63.21;99886.53;10432992;28;20053;-63
2024/02/27 09:43:01;;;;;;;10.40;9.25;;;;;;;12.10;62.79;99880.03;10437156;28;25415;-63
2024/02/27 09:48:03;;;;;;;12.53;9.10;;;;;;;12.31;61.34;99886.06;10435210;28;20060;-62
2024/02/27 09:53:06;;;;;;;10.25;9.25;;;;;;;12.74;60.98;99873.13;10432281;28;20101;-62
2024/02/27 09:58:10;;;;;;;9.80;8.05;;;;;;;13.13;58.80;99872.13;10419278;28;20063;-62
2024/02/27 10:03:14;;;;;;;;;;;;;;;13.43;57.20;99885.16;10437828;28;20179;-61
2024/02/27 10:08:22;;;;;;;11.05;8.82;;;;;;;13.29;57.09;99888.34;10423184;28;19927;-62
2024/02/27 10:13:25;;;;;;;10.93;8.45;;;;;;;12.86;58.89;99911.19;10413294;28;20053;-62
2024/02/27 10:18:26;;;;;;;10.35;9.35;;;;;;;12.41;59.62;99923.41;10414058;28;20127;-64
2024/02/27 10:23:28;;;;;;;9.95;8.95;;;;;;;12.84;58.82;99921.19;10431406;28;20130;-62
2024/02/27 10:28:33;;;;;;;9.63;8.73;;;;;;;13.91;56.36;99927.75;10419622;28;20069;-63
2024/02/27 10:33:39;;;;;;;9.73;8.75;;;;;;;14.73;54.24;99925.75;10427847;28;20076;-62
2024/02/27 10:38:44;;;;;;;9.32;8.20;;;;;;;15.27;52.16;99933.53;10417475;28;20052;-61
2024/02/27 10:43:46;;;;;;;9.65;8.70;;;;;;;14.76;53.15;99938.81;10430899;28;20044;-62
2024/02/27 10:48:49;;;;;;;8.68;7.88;;;;;;;15.13;52.15;99924.28;10411431;28;20191;-62
2024/02/27 10:53:52;;;;;;;8.80;8.00;;;;;;;16.02;49.99;99931.91;10393093;28;20068;-62
2024/02/27 10:58:56;;;;;;;10.23;8.27;;;;;;;15.97;49.44;99939.59;10414814;28;20389;-62
2024/02/27 11:04:03;;;;;;;9.07;8.27;;;;;;;15.99;49.34;99942.94;10410003;28;20195;-63
2024/02/27 11:09:10;;;;;;;8.95;8.15;;;;;;;16.17;49.60;99914.09;10431667;28;20126;-64
2024/02/27 11:14:16;;;;;;;8.40;7.60;;;;;;;16.53;47.65;99940.59;10413530;28;20106;-62
2024/02/27 11:19:24;;;;;;;8.75;7.82;;;;;;;17.41;46.03;99935.31;10428042;28;20163;-62
2024/02/27 11:24:26;;;;;;;8.68;7.05;;;;;;;18.17;44.10;99924.75;10420069;28;20066;-64
2024/02/27 11:29:28;;;;;;;8.75;7.93;;;;;;;19.12;43.16;99934.09;10419147;28;20053;-62
2024/02/27 11:34:33;;;;;;;7.85;7.15;;;;;;;19.97;41.45;99929.09;10407904;28;20048;-63
2024/02/27 11:39:35;;;;;;;8.13;7.43;;;;;;;20.54;39.23;99919.19;10418726;28;20049;-62
2024/02/27 11:45:01;;;;;;;8.43;7.43;;;;;;;21.19;38.26;99917.06;10408694;28;20107;-63
2024/02/27 11:50:03;;;;;;;8.43;7.50;;;;;;;21.63;37.18;99900.59;10427588;28;20049;-63
2024/02/27 11:55:07;;;;;;;8.90;8.00;;;;;;;21.78;36.74;99908.56;10428508;28;20088;-63
2024/02/27 12:00:14;;;;;;;8.43;7.60;;;;;;;22.13;35.68;99909.22;10423360;28;20525;-64
2024/02/27 12:05:18;;;;;;;8.32;7.10;;;;;;;22.37;36.57;99902.38;10411955;28;20068;-62
2024/02/27 12:10:20;;;;;;;8.73;7.82;;;;;;;22.84;35.32;99912.31;10405383;28;20491;-63
2024/02/27 12:15:23;;;;;;;7.78;6.88;;;;;;;23.05;34.31;99900.38;10436579;28;20551;-64
2024/02/27 12:20:24;;;;;;;8.48;7.68;;;;;;;23.36;33.69;99898.78;10413070;28;20059;-63
2024/02/27 12:25:27;;;;;;;8.10;7.40;;;;;;;24.18;32.68;99880.75;10419392;28;20611;-63
2024/02/27 12:30:28;;;;;;;7.93;7.13;;;;;;;24.46;31.80;99886.78;10434263;28;20223;-63
2024/02/27 12:35:30;;;;;;;7.60;6.78;;;;;;;25.36;31.50;99886.22;10427885;28;20349;-63
2024/02/27 12:40:32;;;;;;;8.55;7.80;;;;;;;26.04;29.04;99858.84;10416878;28;20205;-63
2024/02/27 12:45:33;;;;;;;8.13;7.35;;;;;;;27.50;27.29;99871.59;10413193;28;20088;-63
2024/02/27 12:50:35;;;;;;;8.93;7.85;;;;;;;27.81;26.17;99879.53;10418056;28;20625;-63
2024/02/27 12:55:37;;;;;;;6.85;6.25;;;;;;;29.13;25.60;99870.84;10432572;28;20055;-63
2024/02/27 13:00:43;;;;;;;8.20;7.40;;;;;;;29.88;23.98;99867.56;10420346;28;20061;-63
2024/02/27 13:05:46;;;;;;;8.80;6.65;;;;;;;29.59;24.13;99871.38;10433600;28;20071;-63
2024/02/27 13:10:47;;;;;;;8.40;7.27;;;;;;;30.85;23.17;99875.63;10437943;28;20048;-63
2024/02/27 13:15:53;;;;;;;7.20;6.50;;;;;;;30.95;21.89;99861.13;10442785;28;21277;-62
2024/02/27 13:20:54;;;;;;;6.97;6.38;;;;;;;30.64;22.77;99867.31;10416528;28;20053;-64
2024/02/27 13:25:56;;;;;;;7.03;6.37;;;;;;;30.63;22.62;99838.16;10445621;28;20060;-63
2024/02/27 13:30:59;;;;;;;6.88;6.28;;;;;;;30.38;22.88;99843.50;10445231;28;20051;-62
2024/02/27 13:36:01;;;;;;;6.77;6.17;;;;;;;30.50;22.72;99850.44;10430317;28;20041;-63
2024/02/27 13:41:03;;;;;;;7.57;6.88;;;;;;;30.82;22.28;99851.44;10430095;28;20057;-62
2024/02/27 13:46:04;;;;;;;7.18;6.47;;;;;;;30.67;21.94;99841.19;10441235;28;20044;-63
2024/02/27 13:51:10;;;;;;;6.90;6.30;;;;;;;31.16;22.10;99835.38;10434574;28;20056;-64
2024/02/27 13:56:12;;;;;;;7.10;6.43;;;;;;;29.54;22.68;99832.91;10437775;28;20525;-63
2024/02/27 14:01:13;;;;;;;8.03;7.40;;;;;;;27.28;25.70;99821.44;10425233;28;20096;-63
2024/02/27 14:06:16;;;;;;;8.27;7.50;;;;;;;25.30;27.83;99819.06;10437253;28;20446;-63
2024/02/27 14:11:18;;;;;;;8.18;7.47;;;;;;;24.81;28.52;99826.34;10408565;28;20065;-63
2024/02/27 14:16:20;;;;;;;8.80;7.93;;;;;;;25.44;27.69;99827.03;10432378;28;20052;-63
2024/02/27 14:21:21;;;;;;;7.67;6.90;;;;;;;26.36;27.40;99834.78;10436406;28;20053;-63
2024/02/27 14:26:23;;;;;;;8.73;7.93;;;;;;;26.25;26.88;99817.34;10434576;28;20044;-63
2024/02/27 14:31:25;;;;;;;8.15;7.45;;;;;;;24.31;29.76;99836.28;10422271;28;20068;-63
2024/02/27 14:36:26;;;;;;;8.60;7.80;;;;;;;22.55;32.17;99842.06;10421744;28;20044;-63
2024/02/27 14:41:28;;;;;;;9.00;7.82;;;;;;;22.53;32.99;99851.44;10422688;28;21616;-61
2024/02/27 14:46:30;;;;;;;8.45;7.75;;;;;;;23.20;31.85;99846.66;10421915;28;20048;-63
2024/02/27 14:51:31;;;;;;;8.98;8.27;;;;;;;23.81;31.23;99847.16;10430624;28;24415;-62
2024/02/27 14:56:32;;;;;;;8.45;7.65;;;;;;;24.68;29.68;99840.94;10409077;28;20052;-63
2024/02/27 15:01:36;;;;;;;8.60;7.90;;;;;;;23.16;31.85;99841.88;10430338;28;20141;-63
2024/02/27 15:06:38;;;;;;;8.82;8.13;;;;;;;20.94;35.02;99827.50;10430116;28;20056;-64
2024/02/27 15:11:39;;;;;;;8.68;7.88;;;;;;;19.60;37.38;99841.84;10437718;28;20187;-62
2024/02/27 15:16:42;;;;;;;7.95;7.25;;;;;;;18.67;39.29;99847.78;10402930;28;20091;-64
2024/02/27 15:21:46;;;;;;;9.05;8.15;;;;;;;17.97;40.34;99831.00;10431530;28;20218;-62
2024/02/27 15:26:47;;;;;;;9.98;9.10;;;;;;;17.54;41.39;99836.03;10403413;28;20152;-62
2024/02/27 15:31:50;;;;;;;10.32;9.40;;;;;;;17.12;42.49;99842.66;10395460;28;21228;-63
2024/02/27 15:36:52;;;;;;;9.35;8.45;;;;;;;16.92;43.45;99848.47;10410027;28;20147;-64
2024/02/27 15:41:55;;;;;;;9.35;8.55;;;;;;;16.67;44.07;99849.56;10408202;28;20056;-64
2024/02/27 15:46:58;;;;;;;9.60;8.63;;;;;;;16.44;45.07;99852.97;10433839;28;20056;-64
2024/02/27 15:51:59;;;;;;;9.57;8.70;;;;;;;16.25;45.32;99864.91;10418510;28;20173;-63
2024/02/27 15:57:00;;;;;;;9.45;8.25;;;;;;;15.98;46.06;99871.50;10430702;28;20390;-63
2024/02/27 16:02:02;;;;;;;9.25;8.30;;;;;;;15.84;46.90;99873.00;10425778;28;20049;-63
2024/02/27 16:07:11;;;;;;;9.63;8.70;;;;;;;15.60;47.36;99873.75;10429130;28;20591;-63
2024/02/27 16:12:13;;;;;;;9.90;8.90;;;;;;;15.43;48.02;99883.63;10432652;28;20058;-62
2024/02/27 16:17:25;;;;;;;9.77;8.88;;;;;;;15.28;48.43;99891.47;10433427;28;20618;-63
2024/02/27 16:22:27;;;;;;;11.25;9.75;;;;;;;14.82;48.48;99859.66;10423410;28;21144;-62
2024/02/27 16:27:28;;;;;;;10.68;9.35;;;;;;;14.86;48.37;99903.84;10410799;28;20502;-62
2024/02/27 16:32:30;;;;;;;10.02;9.00;;;;;;;14.70;49.07;99914.47;10439411;28;20071;-63
2024/02/27 16:37:34;;;;;;;9.82;8.88;;;;;;;14.47;49.61;99915.84;10433932;28;20625;-63
2024/02/27 16:42:36;;;;;;;10.02;9.02;;;;;;;14.34;50.41;99936.84;10429977;28;20059;-63
2024/02/27 16:47:37;;;;;;;9.73;8.77;;;;;;;14.20;50.43;99942.72;10442858;28;20114;-63
2024/02/27 16:52:39;;;;;;;10.65;9.65;;;;;;;13.94;51.20;99944.34;10432795;28;20037;-62
2024/02/27 16:57:41;;;;;;;13.60;12.30;;;;;;;13.89;51.63;99959.19;10412221;28;20045;-62
2024/02/27 17:02:42;;;;;;;11.20;10.07;;;;;;;13.77;52.23;99966.59;10435386;28;20049;-62
2024/02/27 17:07:44;;;;;;;10.75;9.75;;;;;;;13.57;52.68;99979.22;10415995;28;20049;-63
2024/02/27 17:12:46;;;;;;;11.05;9.80;;;;;;;13.34;53.57;99968.94;10438147;28;20064;-62
2024/02/27 17:17:47;;;;;;;11.43;10.32;;;;;;;13.16;53.71;99989.41;10407920;28;20052;-62
2024/02/27 17:22:49;;;;;;;10.35;9.45;;;;;;;13.11;54.27;100002.38;10408136;28;20060;-63
2024/02/27 17:27:50;;;;;;;12.02;10.82;;;;;;;12.98;54.22;100008.03;10404642;28;20051;-63
2024/02/27 17:32:53;;;;;;;11.82;10.75;;;;;;;12.88;55.30;100008.03;10418548;28;20060;-62
2024/02/27 17:37:55;;;;;;;11.50;10.40;;;;;;;12.84;55.17;100018.19;10424076;28;20059;-63
2024/02/27 17:42:56;;;;;;;11.23;10.13;;;;;;;12.69;55.71;100025.78;10427903;28;20136;-63
2024/02/27 17:47:58;;;;;;;11.65;10.50;;;;;;;12.48;55.56;100036.63;10433383;28;20530;-63
2024/02/27 17:53:00;;;;;;;9.85;8.85;;;;;;;12.42;56.20;100053.22;10431685;28;20127;-62
2024/02/27 17:58:03;;;;;;;12.40;10.23;;;;;;;12.44;56.26;100043.22;10434606;28;20080;-62
2024/02/27 18:03:05;;;;;;;12.07;9.77;;;;;;;12.31;56.82;100059.53;10414549;28;20075;-63
2024/02/27 18:08:07;;;;;;;11.73;10.52;;;;;;;12.19;56.73;100066.00;10436168;28;20051;-63
2024/02/27 18:13:09;;;;;;;14.63;13.15;;;;;;;11.99;57.73;100071.31;10406219;28;20288;-64
2024/02/27 18:18:11;;;;;;;12.50;11.20;;;;;;;11.96;57.54;100070.72;10438968;28;20446;-63
2024/02/27 18:23:13;;;;;;;12.10;10.90;;;;;;;11.87;57.54;100075.00;10416204;28;20126;-63
2024/02/27 18:28:16;;;;;;;11.70;10.60;;;;;;;11.81;57.91;100070.22;10387057;28;20506;-64
2024/02/27 18:33:19;;;;;;;12.75;9.57;;;;;;;11.75;58.39;100090.25;10430349;28;20053;-63
2024/02/27 18:38:23;;;;;;;10.88;9.85;;;;;;;11.59;58.39;100088.13;10410851;28;20459;-63
2024/02/27 18:43:26;;;;;;;;;;;;;;;11.57;58.32;100087.38;10400274;28;20649;-62
2024/02/27 18:48:30;;;;;;;12.18;11.07;;;;;;;11.47;58.35;100091.88;10433040;28;20346;-63
2024/02/27 18:53:38;;;;;;;11.50;10.32;;;;;;;11.36;59.12;100084.78;10406769;28;20052;-62
2024/02/27 18:58:40;;;;;;;11.15;9.60;;;;;;;11.34;58.56;100101.91;10408842;28;20094;-63
2024/02/27 19:03:41;;;;;;;13.63;10.13;;;;;;;11.21;58.37;100091.44;10430764;28;20057;-62
2024/02/27 19:08:51;;;;;;;12.13;10.32;;;;;;;11.32;60.84;100102.03;10406650;28;22736;-65
2024/02/27 19:13:52;;;;;;;10.93;9.50;;;;;;;11.17;58.41;100117.50;10400963;28;20053;-61
2024/02/27 19:18:59;;;;;;;9.88;8.68;;;;;;;10.92;59.20;100135.53;10406363;28;20049;-62
2024/02/27 19:24:03;;;;;;;13.48;9.90;;;;;;;10.86;58.99;100128.06;10419325;28;20174;-62
2024/02/27 19:29:04;;;;;;;13.07;9.82;;;;;;;10.80;59.71;100125.94;10403286;28;20079;-61
2024/02/27 19:34:06;;;;;;;9.98;8.57;;;;;;;10.69;58.75;100137.47;10384329;28;20051;-61
2024/02/27 19:39:07;;;;;;;10.82;9.40;;;;;;;10.56;59.18;100147.44;10431657;28;20045;-61
2024/02/27 19:44:09;;;;;;;10.13;8.50;;;;;;;10.57;58.92;100146.47;10407397;28;20164;-62
2024/02/27 19:49:10;;;;;;;9.35;8.35;;;;;;;10.47;59.58;100141.06;10436550;28;20139;-62
2024/02/27 19:54:13;;;;;;;9.23;8.32;;;;;;;10.63;59.25;100155.75;10402571;28;20052;-62
2024/02/27 19:59:15;;;;;;;9.57;8.57;;;;;;;10.51;59.39;100150.47;10427739;28;20061;-62
2024/02/27 20:04:17;;;;;;;9.70;8.30;;;;;;;10.25;60.00;100152.56;10403728;28;20366;-61
2024/02/27 20:09:20;;;;;;;9.05;8.13;;;;;;;10.25;60.37;100164.06;10389782;28;20053;-65
2024/02/27 20:14:22;;;;;;;11.05;9.90;;;;;;;10.32;60.89;100159.06;10415923;28;20069;-63
2024/02/27 20:19:24;;;;;;;12.60;9.75;;;;;;;10.25;59.95;100157.88;10419008;28;20061;-61
2024/02/27 20:24:25;;;;;;;9.90;8.90;;;;;;;10.16;60.99;100142.66;10419351;28;20056;-68
2024/02/27 20:29:29;;;;;;;9.83;8.83;;;;;;;10.12;61.03;100152.72;10435187;28;20098;-65
2024/02/27 20:34:50;;;;;;;10.25;9.25;;;;;;;10.11;61.54;100161.66;10403852;28;20287;-69
2024/02/27 20:39:52;;;;;;;12.48;11.15;;;;;;;10.02;61.25;100162.38;10424648;28;20046;-69
2024/02/27 20:44:54;;;;;;;10.93;9.73;;;;;;;9.78;62.08;100168.69;10414095;28;20828;-64
2024/02/27 20:49:57;;;;;;;10.07;9.07;;;;;;;9.67;62.42;100163.38;10407135;28;20188;-63
2024/02/27 20:54:59;;;;;;;12.23;11.03;;;;;;;9.53;63.20;100165.28;10404589;28;20051;-65
2024/02/27 21:00:02;;;;;;;10.35;9.25;;;;;;;9.63;63.09;100175.19;10423101;28;20155;-66
2024/02/27 21:05:04;;;;;;;10.02;9.02;;;;;;;9.50;62.93;100176.16;10413889;28;20715;-64
2024/02/27 21:10:06;;;;;;;10.55;9.57;;;;;;;9.47;63.76;100196.78;10432097;28;20057;-65
2024/02/27 21:15:08;;;;;;;11.73;10.55;;;;;;;9.27;63.58;100185.03;10402492;28;20042;-64
2024/02/27 21:20:11;;;;;;;10.85;9.85;;;;;;;9.33;63.61;100197.84;10442116;28;20055;-64
2024/02/27 21:25:12;;;;;;;11.93;9.60;;;;;;;9.40;63.45;100209.69;10442052;28;20052;-64
2024/02/27 21:30:14;;;;;;;11.18;10.02;;;;;;;9.33;63.71;100211.97;10431468;28;20144;-65
2024/02/27 21:35:22;;;;;;;11.90;10.70;;;;;;;9.32;63.98;100212.09;10413612;28;20049;-68
2024/02/27 21:40:23;;;;;;;11.25;10.15;;;;;;;9.27;63.60;100220.41;10436958;28;20131;-65
2024/02/27 21:45:28;;;;;;;11.60;10.40;;;;;;;9.26;63.41;100217.88;10437298;28;20053;-67
2024/02/27 21:50:30;;;;;;;11.88;10.68;;;;;;;9.09;64.07;100219.97;10405474;28;20048;-66
2024/02/27 21:55:31;;;;;;;12.35;10.27;;;;;;;9.10;64.25;100223.50;10433294;28;20064;-66
2024/02/27 22:00:35;;;;;;;12.40;11.10;;;;;;;8.89;64.50;100216.16;10409775;28;20102;-64
2024/02/27 22:05:37;;;;;;;11.57;10.13;;;;;;;8.96;64.73;100232.47;10432096;28;20048;-65
2024/02/27 22:10:38;;;;;;;13.77;10.52;;;;;;;9.02;64.30;100229.34;10422079;28;20047;-65
2024/02/27 22:15:40;;;;;;;11.65;10.20;;;;;;;8.76;64.49;100200.28;10417601;28;20044;-65
2024/02/27 22:20:42;;;;;;;12.57;11.15;;;;;;;8.95;64.81;100244.06;10417534;28;20053;-66
2024/02/27 22:25:43;;;;;;;12.77;11.48;;;;;;;8.80;64.50;100254.84;10407648;28;20052;-64
2024/02/27 22:30:45;;;;;;;11.15;9.95;;;;;;;8.61;65.59;100246.53;10409632;28;20051;-64
2024/02/27 22:35:48;;;;;;;12.77;11.48;;;;;;;8.03;66.69;100209.94;10418967;28;20052;-66
2024/02/27 22:40:49;;;;;;;12.23;10.93;;;;;;;8.41;66.56;100240.81;10429599;28;20605;-63
2024/02/27 22:45:51;;;;;;;12.60;11.30;;;;;;;8.59;66.23;100259.91;10432006;28;20056;-64
2024/02/27 22:50:52;;;;;;;11.68;10.45;;;;;;;8.57;65.90;100255.66;10427255;28;20061;-66
2024/02/27 22:55:54;;;;;;;12.18;11.02;;;;;;;8.62;65.86;100253.53;10419359;28;20057;-64
2024/02/27 23:00:56;;;;;;;12.70;11.13;;;;;;;8.62;65.87;100254.38;10434466;28;20513;-65
2024/02/27 23:06:00;;;;;;;12.10;10.90;;;;;;;8.63;65.42;100260.53;10432051;28;20048;-67
2024/02/27 23:11:03;;;;;;;11.30;10.20;;;;;;;8.55;65.54;100276.16;10406266;28;20629;-65
2024/02/27 23:16:05;;;;;;;12.50;11.30;;;;;;;8.41;65.65;100261.19;10405934;28;20095;-66